createdAt,value
2022-09-09T00:00:02.990Z,47.30
2022-09-09T00:02:30.124Z,46.40
2022-09-09T00:05:10.305Z,46.50
2022-09-09T00:07:55.397Z,46.60
2022-09-09T00:10:22.078Z,46.70
2022-09-09T00:13:07.758Z,46.80
2022-09-09T00:15:53.313Z,47.00
2022-09-09T00:18:23.070Z,47.10
2022-09-09T00:21:18.846Z,47.10
2022-09-09T00:23:46.000Z,47.20
2022-09-09T00:26:18.649Z,47.20
2022-09-09T00:29:03.990Z,47.20
2022-09-09T00:31:31.169Z,47.30
2022-09-09T00:34:13.783Z,47.40
2022-09-09T00:36:40.751Z,47.50
2022-09-09T00:39:09.603Z,47.50
2022-09-09T00:41:36.209Z,47.50
2022-09-09T00:44:22.141Z,47.40
2022-09-09T00:46:54.902Z,47.60
2022-09-09T00:49:27.719Z,47.60
2022-09-09T00:52:09.592Z,47.70
2022-09-09T00:54:47.666Z,47.60
2022-09-09T00:57:24.503Z,47.60
2022-09-09T01:00:15.799Z,47.70
2022-09-09T01:02:45.558Z,47.60
2022-09-09T01:05:14.598Z,47.70
2022-09-09T01:07:41.384Z,48.50
2022-09-09T01:10:08.994Z,48.50
2022-09-09T01:12:39.289Z,48.00
2022-09-09T01:15:10.340Z,47.70
2022-09-09T01:17:43.053Z,47.80
2022-09-09T01:20:09.907Z,46.60
2022-09-09T01:22:51.180Z,46.10
2022-09-09T01:25:22.430Z,46.20
2022-09-09T01:27:49.295Z,46.30
2022-09-09T01:30:16.755Z,46.40
2022-09-09T01:32:47.358Z,46.40
2022-09-09T01:35:27.435Z,46.60
2022-09-09T01:37:54.020Z,46.60
2022-09-09T01:40:20.622Z,46.60
2022-09-09T01:42:47.271Z,46.60
2022-09-09T01:45:14.010Z,46.70
2022-09-09T01:47:40.639Z,46.80
2022-09-09T01:50:08.849Z,46.80
2022-09-09T01:52:35.449Z,46.90
2022-09-09T01:55:02.037Z,46.90
2022-09-09T01:57:29.714Z,47.00
2022-09-09T02:00:12.960Z,47.10
2022-09-09T02:03:05.841Z,47.10
2022-09-09T02:05:46.695Z,47.20
2022-09-09T02:08:16.568Z,47.30
2022-09-09T02:10:43.119Z,47.30
2022-09-09T02:13:13.807Z,47.30
2022-09-09T02:15:43.821Z,47.40
2022-09-09T02:18:11.052Z,47.50
2022-09-09T02:20:37.918Z,47.50
2022-09-09T02:23:04.648Z,47.40
2022-09-09T02:25:31.315Z,47.40
2022-09-09T02:28:01.195Z,47.50
2022-09-09T02:30:28.433Z,47.60
2022-09-09T02:32:58.009Z,47.60
2022-09-09T02:35:25.282Z,47.90
2022-09-09T02:37:52.307Z,48.40
2022-09-09T02:40:19.161Z,48.20
2022-09-09T02:42:49.266Z,47.90
2022-09-09T02:45:26.078Z,47.70
2022-09-09T02:47:56.751Z,47.50
2022-09-09T02:50:27.316Z,46.80
2022-09-09T02:53:02.975Z,46.90
2022-09-09T02:55:39.951Z,46.90
2022-09-09T02:58:08.036Z,47.00
2022-09-09T03:00:36.890Z,47.20
2022-09-09T03:03:04.440Z,47.40
2022-09-09T03:05:31.051Z,47.50
2022-09-09T03:07:57.633Z,47.80
2022-09-09T03:10:24.247Z,47.80
2022-09-09T03:12:51.268Z,47.80
2022-09-09T03:15:17.901Z,48.10
2022-09-09T03:17:44.495Z,48.20
2022-09-09T03:20:11.203Z,48.30
2022-09-09T03:22:37.750Z,48.40
2022-09-09T03:25:04.482Z,48.40
2022-09-09T03:27:31.148Z,48.50
2022-09-09T03:29:58.509Z,48.60
2022-09-09T03:32:26.667Z,48.70
2022-09-09T03:34:53.405Z,48.80
2022-09-09T03:37:20.262Z,48.80
2022-09-09T03:39:46.832Z,49.10
2022-09-09T03:42:15.105Z,49.50
2022-09-09T03:44:42.928Z,50.40
2022-09-09T03:47:09.516Z,51.10
2022-09-09T03:49:36.117Z,51.40
2022-09-09T03:52:02.871Z,51.90
2022-09-09T03:54:29.425Z,52.20
2022-09-09T03:56:56.014Z,52.60
2022-09-09T03:59:23.974Z,53.00
2022-09-09T04:01:51.082Z,53.00
2022-09-09T04:04:17.763Z,53.10
2022-09-09T04:06:44.348Z,53.00
2022-09-09T04:09:10.984Z,52.80
2022-09-09T04:11:38.139Z,52.90
2022-09-09T04:14:06.931Z,52.90
2022-09-09T04:16:34.076Z,52.90
2022-09-09T04:19:01.077Z,53.20
2022-09-09T04:21:27.677Z,53.30
2022-09-09T04:23:54.226Z,53.20
2022-09-09T04:26:21.146Z,53.40
2022-09-09T04:28:47.963Z,53.40
2022-09-09T04:31:19.451Z,53.30
2022-09-09T04:33:46.697Z,53.70
2022-09-09T04:36:13.580Z,53.80
2022-09-09T04:38:40.330Z,54.10
2022-09-09T04:41:07.030Z,54.00
2022-09-09T04:43:33.584Z,54.40
2022-09-09T04:46:00.436Z,54.50
2022-09-09T04:48:27.382Z,54.40
2022-09-09T04:51:20.220Z,54.50
2022-09-09T04:53:48.522Z,54.50
2022-09-09T04:56:15.866Z,54.70
2022-09-09T04:58:46.462Z,54.80
2022-09-09T05:01:18.247Z,54.80
2022-09-09T05:03:46.408Z,54.50
2022-09-09T05:06:17.111Z,55.20
2022-09-09T05:08:43.993Z,55.10
2022-09-09T05:11:17.415Z,54.90
2022-09-09T05:13:44.180Z,54.50
2022-09-09T05:16:12.352Z,54.00
2022-09-09T05:18:39.420Z,53.60
2022-09-09T05:21:06.600Z,53.10
2022-09-09T05:23:34.791Z,53.00
2022-09-09T05:26:01.457Z,52.50
2022-09-09T05:28:28.107Z,52.60
2022-09-09T05:31:01.750Z,52.30
2022-09-09T05:33:28.388Z,51.90
2022-09-09T05:36:02.489Z,51.60
2022-09-09T05:38:29.383Z,51.10
2022-09-09T05:40:57.044Z,50.80
2022-09-09T05:43:23.902Z,50.50
2022-09-09T05:45:59.389Z,50.20
2022-09-09T05:48:25.932Z,49.90
2022-09-09T05:50:55.494Z,49.90
2022-09-09T05:53:22.077Z,49.90
2022-09-09T05:55:49.177Z,50.00
2022-09-09T05:58:17.812Z,50.00
2022-09-09T06:00:45.075Z,50.20
2022-09-09T06:03:12.528Z,50.30
2022-09-09T06:05:39.397Z,50.20
2022-09-09T06:08:05.997Z,50.20
2022-09-09T06:10:32.635Z,50.20
2022-09-09T06:12:59.184Z,50.40
2022-09-09T06:15:25.759Z,50.40
2022-09-09T06:17:56.302Z,51.00
2022-09-09T06:20:23.258Z,50.50
2022-09-09T06:22:49.799Z,50.40
2022-09-09T06:25:16.346Z,50.40
2022-09-09T06:27:43.251Z,50.60
2022-09-09T06:30:10.742Z,50.50
2022-09-09T06:32:38.828Z,50.60
2022-09-09T06:35:05.660Z,50.70
2022-09-09T06:37:32.322Z,50.60
2022-09-09T06:39:58.982Z,50.70
2022-09-09T06:42:25.599Z,50.60
2022-09-09T06:44:53.302Z,50.70
2022-09-09T06:47:19.870Z,50.60
2022-09-09T06:49:48.309Z,50.60
2022-09-09T06:52:15.134Z,50.80
2022-09-09T06:54:41.761Z,50.80
2022-09-09T06:57:33.556Z,50.60
2022-09-09T06:59:54.989Z,50.80
2022-09-09T07:02:22.477Z,50.70
2022-09-09T07:04:51.959Z,50.50
2022-09-09T07:07:18.834Z,50.50
2022-09-09T07:09:46.486Z,50.10
2022-09-09T07:12:13.336Z,49.80
2022-09-09T07:14:40.411Z,49.80
2022-09-09T07:17:06.983Z,49.80
2022-09-09T07:19:35.060Z,49.80
2022-09-09T07:22:03.476Z,49.80
2022-09-09T07:24:31.139Z,50.50
2022-09-09T07:26:57.944Z,49.90
2022-09-09T07:29:24.498Z,49.80
2022-09-09T07:31:51.130Z,50.00
2022-09-09T07:34:17.743Z,50.10
2022-09-09T07:36:44.353Z,50.20
2022-09-09T07:39:11.753Z,50.10
2022-09-09T07:41:39.531Z,50.20
2022-09-09T07:44:07.676Z,50.40
2022-09-09T07:46:35.112Z,50.40
2022-09-09T07:49:01.975Z,50.30
2022-09-09T07:51:29.397Z,50.30
2022-09-09T07:53:58.490Z,50.50
2022-09-09T07:56:25.160Z,50.60
2022-09-09T07:58:52.652Z,50.80
2022-09-09T08:01:20.481Z,50.70
2022-09-09T08:03:47.149Z,50.70
2022-09-09T08:06:14.640Z,50.90
2022-09-09T08:08:42.871Z,51.10
2022-09-09T08:11:12.942Z,51.00
2022-09-09T08:13:39.828Z,51.20
2022-09-09T08:16:07.138Z,51.10
2022-09-09T08:18:33.742Z,51.20
2022-09-09T08:21:05.772Z,50.90
2022-09-09T08:23:32.354Z,51.20
2022-09-09T08:26:04.257Z,50.80
2022-09-09T08:28:32.036Z,50.70
2022-09-09T08:31:05.982Z,50.30
2022-09-09T08:33:33.834Z,50.20
2022-09-09T08:36:00.487Z,49.80
2022-09-09T08:38:27.170Z,49.90
2022-09-09T08:40:54.801Z,49.70
2022-09-09T08:43:21.369Z,49.80
2022-09-09T08:45:51.685Z,49.90
2022-09-09T08:48:37.147Z,50.10
2022-09-09T08:51:04.194Z,50.10
2022-09-09T08:53:40.256Z,50.30
2022-09-09T08:56:09.889Z,50.40
2022-09-09T08:58:37.651Z,50.40
2022-09-09T09:01:10.693Z,50.30
2022-09-09T09:03:42.503Z,50.50
2022-09-09T09:06:29.378Z,50.50
2022-09-09T09:08:58.923Z,50.70
2022-09-09T09:11:25.503Z,50.60
2022-09-09T09:14:05.379Z,50.60
2022-09-09T09:16:33.307Z,50.70
2022-09-09T09:19:00.274Z,50.70
2022-09-09T09:21:56.161Z,50.80
2022-09-09T09:24:35.936Z,50.70
2022-09-09T09:27:07.994Z,50.80
2022-09-09T09:29:45.672Z,50.80
2022-09-09T09:32:22.943Z,51.40
2022-09-09T09:34:50.413Z,50.80
2022-09-09T09:37:20.495Z,50.90
2022-09-09T09:42:29.204Z,50.80
2022-09-09T09:44:55.745Z,50.60
2022-09-09T09:47:22.569Z,50.30
2022-09-09T09:49:53.167Z,50.20
2022-09-09T09:52:22.081Z,50.00
2022-09-09T09:54:48.649Z,49.80
2022-09-09T09:57:15.922Z,49.70
2022-09-09T09:59:42.523Z,50.50
2022-09-09T10:02:16.028Z,49.80
2022-09-09T10:04:42.659Z,50.00
2022-09-09T10:07:13.335Z,50.10
2022-09-09T10:09:41.687Z,50.20
2022-09-09T10:12:27.170Z,50.10
2022-09-09T10:14:59.885Z,50.20
2022-09-09T10:17:46.218Z,50.30
2022-09-09T10:20:12.731Z,50.50
2022-09-09T10:22:39.593Z,50.40
2022-09-09T10:25:12.022Z,50.60
2022-09-09T10:27:58.993Z,50.50
2022-09-09T10:30:27.309Z,50.60
2022-09-09T10:33:06.664Z,50.50
2022-09-09T10:35:37.717Z,50.70
2022-09-09T10:38:07.312Z,50.70
2022-09-09T10:41:03.287Z,50.70
2022-09-09T10:43:47.960Z,50.60
2022-09-09T10:46:24.206Z,50.20
2022-09-09T10:48:57.586Z,50.00
2022-09-09T10:51:43.188Z,49.90
2022-09-09T10:54:09.711Z,49.70
2022-09-09T10:56:36.251Z,49.50
2022-09-09T10:59:05.891Z,49.50
2022-09-09T11:01:34.794Z,49.70
2022-09-09T11:04:06.552Z,49.70
2022-09-09T11:06:35.810Z,49.90
2022-09-09T11:09:02.601Z,49.80
2022-09-09T11:11:35.623Z,50.00
2022-09-09T11:14:22.322Z,50.20
2022-09-09T11:16:53.294Z,50.20
2022-09-09T11:19:26.153Z,50.20
2022-09-09T11:21:53.185Z,50.80
2022-09-09T11:24:24.845Z,50.40
2022-09-09T11:26:54.508Z,50.50
2022-09-09T11:29:25.477Z,50.60
2022-09-09T11:32:21.479Z,50.60
2022-09-09T11:35:04.083Z,50.60
2022-09-09T11:37:33.785Z,50.70
2022-09-09T11:40:09.656Z,50.60
2022-09-09T11:42:36.250Z,50.40
2022-09-09T11:45:12.675Z,50.20
2022-09-09T11:47:39.210Z,49.90
2022-09-09T11:50:09.906Z,49.70
2022-09-09T11:52:37.621Z,49.50
2022-09-09T11:55:26.890Z,49.50
2022-09-09T11:58:03.338Z,49.50
2022-09-09T12:00:50.966Z,49.70
2022-09-09T12:03:36.911Z,49.70
2022-09-09T12:06:12.612Z,49.80
2022-09-09T12:08:39.193Z,49.80
2022-09-09T12:11:06.038Z,49.90
2022-09-09T12:13:32.783Z,50.00
2022-09-09T12:16:00.105Z,50.00
2022-09-09T12:18:27.594Z,50.70
2022-09-09T12:21:06.480Z,50.10
2022-09-09T12:23:43.527Z,50.20
2022-09-09T12:26:29.867Z,50.80
2022-09-09T12:29:05.816Z,50.20
2022-09-09T12:31:50.725Z,50.40
2022-09-09T12:34:36.958Z,50.20
2022-09-09T12:37:05.924Z,50.30
2022-09-09T12:39:36.993Z,50.30
2022-09-09T12:42:05.232Z,50.20
2022-09-09T12:44:33.297Z,50.00
2022-09-09T12:47:01.459Z,49.70
2022-09-09T12:49:35.289Z,49.50
2022-09-09T12:52:02.819Z,49.40
2022-09-09T12:55:21.158Z,49.30
2022-09-09T12:58:10.719Z,49.20
2022-09-09T13:00:39.622Z,49.30
2022-09-09T13:03:33.116Z,49.30
2022-09-09T13:06:15.807Z,49.50
2022-09-09T13:09:26.834Z,49.60
2022-09-09T13:11:54.510Z,49.70
2022-09-09T13:14:26.815Z,49.70
2022-09-09T13:16:57.118Z,49.90
2022-09-09T13:19:26.656Z,50.10
2022-09-09T13:21:53.990Z,50.10
2022-09-09T13:24:31.387Z,50.10
2022-09-09T13:26:58.621Z,50.20
2022-09-09T13:29:25.316Z,50.80
2022-09-09T13:31:53.674Z,50.10
2022-09-09T13:34:30.918Z,50.10
2022-09-09T13:37:03.320Z,50.20
2022-09-09T13:39:29.978Z,50.20
2022-09-09T13:41:56.591Z,50.00
2022-09-09T13:44:38.042Z,49.70
2022-09-09T13:47:18.368Z,49.60
2022-09-09T13:49:46.701Z,49.40
2022-09-09T13:52:14.602Z,49.10
2022-09-09T13:54:41.388Z,49.10
2022-09-09T13:57:16.083Z,49.10
2022-09-09T14:00:03.722Z,49.40
2022-09-09T14:02:29.349Z,49.30
2022-09-09T14:04:56.415Z,49.40
2022-09-09T14:07:22.994Z,49.60
2022-09-09T14:09:51.053Z,49.60
2022-09-09T14:12:17.706Z,49.70
2022-09-09T14:14:44.854Z,49.70
2022-09-09T14:17:11.499Z,49.80
2022-09-09T14:19:38.276Z,49.90
2022-09-09T14:22:04.881Z,49.90
2022-09-09T14:24:31.925Z,50.00
2022-09-09T14:26:58.529Z,49.70
2022-09-09T14:29:26.399Z,49.10
2022-09-09T14:31:53.013Z,49.00
2022-09-09T14:34:19.595Z,49.50
2022-09-09T14:36:47.899Z,48.50
2022-09-09T14:39:14.491Z,47.90
2022-09-09T14:41:41.040Z,46.90
2022-09-09T14:44:07.625Z,44.70
2022-09-09T14:46:34.510Z,45.60
2022-09-09T14:49:01.110Z,43.30
2022-09-09T14:51:30.585Z,43.00
2022-09-09T14:53:58.124Z,43.50
2022-09-09T14:56:26.112Z,43.50
2022-09-09T14:58:58.739Z,44.00
2022-09-09T15:01:28.283Z,44.30
2022-09-09T15:03:55.749Z,44.00
2022-09-09T15:06:22.890Z,44.10
2022-09-09T15:08:50.035Z,44.00
2022-09-09T15:11:17.248Z,43.30
2022-09-09T15:13:44.071Z,43.40
2022-09-09T15:16:14.526Z,44.60
2022-09-09T15:18:43.698Z,45.20
2022-09-09T15:21:14.019Z,45.30
2022-09-09T15:23:40.625Z,45.80
2022-09-09T15:26:07.217Z,45.90
2022-09-09T15:28:38.164Z,46.00
2022-09-09T15:31:15.483Z,46.00
2022-09-09T15:33:42.107Z,46.10
2022-09-09T15:36:14.984Z,45.90
2022-09-09T15:38:41.776Z,46.00
2022-09-09T15:41:08.337Z,45.40
2022-09-09T15:43:35.244Z,43.90
2022-09-09T15:46:03.642Z,44.30
2022-09-09T15:48:33.870Z,43.40
2022-09-09T15:51:10.875Z,43.00
2022-09-09T15:53:57.620Z,42.90
2022-09-09T15:56:24.608Z,42.50
2022-09-09T15:58:51.251Z,42.70
2022-09-09T16:01:17.910Z,42.70
2022-09-09T16:03:47.073Z,43.30
2022-09-09T16:06:17.673Z,43.70
2022-09-09T16:08:44.690Z,43.30
2022-09-09T16:11:12.258Z,43.20
2022-09-09T16:13:40.088Z,43.00
2022-09-09T16:16:07.094Z,43.10
2022-09-09T16:18:34.606Z,43.10
2022-09-09T16:21:01.326Z,43.10
2022-09-09T16:23:28.048Z,43.40
2022-09-09T16:25:55.797Z,43.60
2022-09-09T16:28:22.452Z,44.00
2022-09-09T16:30:49.319Z,43.80
2022-09-09T16:33:16.093Z,43.60
2022-09-09T16:35:42.669Z,44.70
2022-09-09T16:38:09.253Z,44.90
2022-09-09T16:40:36.095Z,45.40
2022-09-09T16:43:02.882Z,46.20
2022-09-09T16:45:30.214Z,46.00
2022-09-09T16:47:56.817Z,45.70
2022-09-09T16:50:23.400Z,45.50
2022-09-09T16:52:50.271Z,45.90
2022-09-09T16:55:17.215Z,45.50
2022-09-09T16:57:43.807Z,45.90
2022-09-09T17:00:10.730Z,45.70
2022-09-09T17:02:37.420Z,46.00
2022-09-09T17:05:04.209Z,45.80
2022-09-09T17:07:30.837Z,46.00
2022-09-09T17:09:57.698Z,46.20
2022-09-09T17:12:24.271Z,46.30
2022-09-09T17:14:50.858Z,46.50
2022-09-09T17:17:31.204Z,46.50
2022-09-09T17:19:58.805Z,46.50
2022-09-09T17:22:27.550Z,46.60
2022-09-09T17:24:54.200Z,46.60
2022-09-09T17:27:20.823Z,46.70
2022-09-09T17:29:47.924Z,46.40
2022-09-09T17:32:14.543Z,46.50
2022-09-09T17:34:41.358Z,46.50
2022-09-09T17:37:08.034Z,46.80
2022-09-09T17:39:34.815Z,47.00
2022-09-09T17:42:01.520Z,46.40
2022-09-09T17:44:29.770Z,46.00
2022-09-09T17:46:57.093Z,45.80
2022-09-09T17:49:23.915Z,44.90
2022-09-09T17:51:50.564Z,44.70
2022-09-09T17:54:17.995Z,44.70
2022-09-09T17:56:45.119Z,45.00
2022-09-09T17:59:13.110Z,45.20
2022-09-09T18:01:40.485Z,45.40
2022-09-09T18:04:07.974Z,45.70
2022-09-09T18:06:35.457Z,45.90
2022-09-09T18:09:03.403Z,46.00
2022-09-09T18:11:34.626Z,46.00
2022-09-09T18:14:01.895Z,46.10
2022-09-09T18:16:29.484Z,46.20
2022-09-09T18:18:58.286Z,46.40
2022-09-09T18:21:26.333Z,46.40
2022-09-09T18:23:53.346Z,46.50
2022-09-09T18:26:21.449Z,46.50
2022-09-09T18:28:48.717Z,46.60
2022-09-09T18:31:15.733Z,46.70
2022-09-09T18:33:43.107Z,46.70
2022-09-09T18:36:10.736Z,46.80
2022-09-09T18:38:38.549Z,46.80
2022-09-09T18:41:19.268Z,47.90
2022-09-09T18:43:45.879Z,48.10
2022-09-09T18:46:12.856Z,47.50
2022-09-09T18:48:39.727Z,47.10
2022-09-09T18:51:09.712Z,46.80
2022-09-09T18:53:37.016Z,45.70
2022-09-09T18:56:04.596Z,45.70
2022-09-09T18:58:31.998Z,46.00
2022-09-09T19:00:59.062Z,47.00
2022-09-09T19:03:25.911Z,47.60
2022-09-09T19:05:52.564Z,48.10
2022-09-09T19:08:20.348Z,48.40
2022-09-09T19:10:47.690Z,49.10
2022-09-09T19:13:14.556Z,49.40
2022-09-09T19:15:41.407Z,49.20
2022-09-09T19:18:08.050Z,49.80
2022-09-09T19:20:34.720Z,50.10
2022-09-09T19:23:02.111Z,50.00
2022-09-09T19:25:28.879Z,50.30
2022-09-09T19:27:55.472Z,50.50
2022-09-09T19:30:22.093Z,50.70
2022-09-09T19:32:53.749Z,50.80
2022-09-09T19:35:20.812Z,51.00
2022-09-09T19:37:47.578Z,51.00
2022-09-09T19:40:14.175Z,51.10
2022-09-09T19:42:40.906Z,51.40
2022-09-09T19:45:09.420Z,51.30
2022-09-09T19:47:36.132Z,51.50
2022-09-09T19:50:30.762Z,51.40
2022-09-09T19:52:57.933Z,51.70
2022-09-09T19:55:28.706Z,51.30
2022-09-09T19:57:55.597Z,50.50
2022-09-09T20:00:22.198Z,49.70
2022-09-09T20:03:15.346Z,49.00
2022-09-09T20:05:37.737Z,47.40
2022-09-09T20:08:04.347Z,47.20
2022-09-09T20:10:31.821Z,47.30
2022-09-09T20:13:00.342Z,47.90
2022-09-09T20:15:26.958Z,47.80
2022-09-09T20:17:54.500Z,47.90
2022-09-09T20:20:21.119Z,47.90
2022-09-09T20:22:51.193Z,47.70
2022-09-09T20:25:17.837Z,47.70
2022-09-09T20:27:44.967Z,47.60
2022-09-09T20:30:12.224Z,47.50
2022-09-09T20:32:38.872Z,47.70
2022-09-09T20:35:05.508Z,47.70
2022-09-09T20:37:32.094Z,47.80
2022-09-09T20:40:01.044Z,47.90
2022-09-09T20:42:27.613Z,48.00
2022-09-09T20:44:54.236Z,48.00
2022-09-09T20:47:20.847Z,47.80
2022-09-09T20:49:47.453Z,47.80
2022-09-09T20:52:15.183Z,48.00
2022-09-09T20:54:42.199Z,47.90
2022-09-09T20:57:08.974Z,48.20
2022-09-09T20:59:35.580Z,48.00
2022-09-09T21:02:02.394Z,48.10
2022-09-09T21:04:29.305Z,48.20
2022-09-09T21:06:55.891Z,48.20
2022-09-09T21:09:25.539Z,48.20
2022-09-09T21:11:53.622Z,48.40
2022-09-09T21:14:20.338Z,48.20
2022-09-09T21:16:46.937Z,48.30
2022-09-09T21:19:13.497Z,48.40
2022-09-09T21:21:40.138Z,48.30
2022-09-09T21:24:06.779Z,48.30
2022-09-09T21:26:33.414Z,48.30
2022-09-09T21:29:00.030Z,48.30
2022-09-09T21:31:28.082Z,48.70
2022-09-09T21:33:55.643Z,48.30
2022-09-09T21:36:22.235Z,48.50
2022-09-09T21:38:48.813Z,47.90
2022-09-09T21:41:15.515Z,47.30
2022-09-09T21:43:42.339Z,47.00
2022-09-09T21:46:09.392Z,47.20
2022-09-09T21:48:36.119Z,47.70
2022-09-09T21:51:04.389Z,48.20
2022-09-09T21:53:32.334Z,47.60
2022-09-09T21:56:02.608Z,47.80
2022-09-09T21:58:29.306Z,47.70
2022-09-09T22:00:55.892Z,47.70
2022-09-09T22:03:22.662Z,47.50
2022-09-09T22:05:53.742Z,47.60
2022-09-09T22:08:20.631Z,47.70
2022-09-09T22:10:47.237Z,48.40
2022-09-09T22:13:17.050Z,47.80
2022-09-09T22:15:44.495Z,48.00
2022-09-09T22:18:11.187Z,48.00
2022-09-09T22:20:41.815Z,48.00
2022-09-09T22:23:09.185Z,48.10
2022-09-09T22:25:36.058Z,48.10
2022-09-09T22:28:03.287Z,48.00
2022-09-09T22:30:29.867Z,48.10
2022-09-09T22:32:56.794Z,48.00
2022-09-09T22:35:23.519Z,48.20
2022-09-09T22:37:50.107Z,48.10
2022-09-09T22:40:16.703Z,48.10
2022-09-09T22:42:43.297Z,48.00
2022-09-09T22:45:10.157Z,48.10
2022-09-09T22:47:36.742Z,48.10
2022-09-09T22:50:04.031Z,48.10
2022-09-09T22:52:32.152Z,48.10
2022-09-09T22:54:59.131Z,48.10
2022-09-09T22:57:26.076Z,48.20
2022-09-09T22:59:52.649Z,48.20
2022-09-09T23:02:20.609Z,48.10
2022-09-09T23:04:47.679Z,48.00
2022-09-09T23:07:15.081Z,48.10
2022-09-09T23:09:41.650Z,48.40
2022-09-09T23:12:09.516Z,48.50
2022-09-09T23:14:36.315Z,48.20
2022-09-09T23:17:02.888Z,48.00
2022-09-09T23:19:29.922Z,47.80
2022-09-09T23:21:58.298Z,47.80
2022-09-09T23:24:24.924Z,47.60
2022-09-09T23:26:52.360Z,47.40
2022-09-09T23:29:19.287Z,47.70
2022-09-09T23:31:46.036Z,47.90
2022-09-09T23:34:13.050Z,48.20
2022-09-09T23:36:39.761Z,48.50
2022-09-09T23:39:06.494Z,48.50
2022-09-09T23:41:35.295Z,48.60
2022-09-09T23:44:02.490Z,48.60
2022-09-09T23:46:29.336Z,48.50
2022-09-09T23:48:56.998Z,48.60
2022-09-09T23:51:25.177Z,48.70
2022-09-09T23:53:52.856Z,48.70
2022-09-09T23:56:23.469Z,48.70
2022-09-09T23:58:50.150Z,48.70
